Time;durP1;ratioP1;P1;durP2;ratioP2;P2;SDS_P1;SDS_P2;PMS_P1;PMS_P2;Temp;Humidity;BMP_temperature;BMP_pressure;BME280_temperature;BME280_humidity;BME280_pressure;Samples;Min_cycle;Max_cycle;Signal;HPM_P1;HPM_P2
2020/12/20 00:01:54;;;;;;;3.67;2.85;;;23.80;31.90;;;;;;5012370;28;20486;-57
2020/12/20 00:04:19;;;;;;;3.08;2.67;;;23.80;31.80;;;;;;5012319;28;20420;-54
2020/12/20 00:06:45;;;;;;;3.53;3.00;;;23.80;31.80;;;;;;5012028;28;20395;-54
2020/12/20 00:09:14;;;;;;;4.00;3.10;;;23.80;31.80;;;;;;5012617;28;20761;-54
2020/12/20 00:11:41;;;;;;;3.38;3.08;;;23.80;31.70;;;;;;5012361;28;20388;-54
2020/12/20 00:16:52;;;;;;;3.20;2.90;;;23.70;31.70;;;;;;5012060;28;20781;-54
2020/12/20 00:19:18;;;;;;;3.22;2.92;;;23.70;31.40;;;;;;5012190;28;20392;-54
2020/12/20 00:21:44;;;;;;;3.23;2.93;;;23.70;31.80;;;;;;5012241;28;20408;-55
2020/12/20 00:24:10;;;;;;;3.47;2.83;;;23.60;31.60;;;;;;5012269;28;20428;-54
2020/12/20 00:26:36;;;;;;;3.20;2.90;;;23.70;31.80;;;;;;5011414;28;20381;-54
2020/12/20 00:29:04;;;;;;;3.33;2.67;;;23.60;31.90;;;;;;5006245;28;20397;-54
2020/12/20 00:31:29;;;;;;;3.25;2.85;;;23.60;32.00;;;;;;5003058;28;20477;-54
2020/12/20 00:33:55;;;;;;;3.10;2.80;;;23.50;31.80;;;;;;5000151;28;20876;-56
2020/12/20 00:36:21;;;;;;;2.77;2.50;;;23.50;32.10;;;;;;5000312;28;20469;-54
2020/12/20 00:38:46;;;;;;;3.10;2.80;;;23.50;31.90;;;;;;4992087;28;20398;-54
2020/12/20 00:41:12;;;;;;;3.60;2.67;;;23.50;32.00;;;;;;4992407;28;20382;-55
2020/12/20 00:43:37;;;;;;;3.17;2.70;;;23.40;32.10;;;;;;5003444;28;20789;-54
2020/12/20 00:46:03;;;;;;;3.20;2.78;;;23.50;32.20;;;;;;5000783;28;20466;-54
2020/12/20 00:48:28;;;;;;;3.00;2.70;;;23.50;32.20;;;;;;5008922;28;20401;-56
2020/12/20 00:50:54;;;;;;;2.80;2.50;;;23.60;32.30;;;;;;4993327;28;20754;-55
2020/12/20 00:53:20;;;;;;;2.75;2.55;;;23.70;32.50;;;;;;4992338;28;20406;-55
2020/12/20 00:55:48;;;;;;;3.47;2.63;;;23.60;32.70;;;;;;4992191;28;20870;-54
2020/12/20 00:58:14;;;;;;;2.80;2.38;;;23.60;32.60;;;;;;4992173;28;20390;-57
2020/12/20 01:00:39;;;;;;;2.47;2.27;;;23.50;32.50;;;;;;4991943;28;21021;-54
2020/12/20 01:03:05;;;;;;;2.72;2.42;;;23.40;32.20;;;;;;4991464;28;20450;-54
2020/12/20 01:05:31;;;;;;;2.83;2.47;;;23.30;32.00;;;;;;4991861;28;20504;-54
2020/12/20 01:07:57;;;;;;;2.60;2.40;;;23.40;32.10;;;;;;4991524;28;20418;-54
2020/12/20 01:10:23;;;;;;;3.07;2.30;;;23.30;32.20;;;;;;4991880;28;20802;-54
2020/12/20 01:12:49;;;;;;;2.97;2.40;;;23.20;32.00;;;;;;4991509;28;20405;-54
2020/12/20 01:15:14;;;;;;;3.10;2.40;;;23.20;31.90;;;;;;4993870;28;20420;-54
2020/12/20 01:17:40;;;;;;;2.50;2.17;;;23.20;32.00;;;;;;4996103;28;20390;-54
2020/12/20 01:20:06;;;;;;;2.53;2.30;;;23.20;32.00;;;;;;4996138;28;20443;-54
2020/12/20 01:22:32;;;;;;;2.40;2.20;;;23.10;31.90;;;;;;4995854;28;20922;-54
2020/12/20 01:24:57;;;;;;;2.33;2.10;;;23.20;32.30;;;;;;4978316;28;20963;-54
2020/12/20 01:27:23;;;;;;;2.95;2.28;;;23.10;32.00;;;;;;4995919;28;20394;-54
2020/12/20 01:29:48;;;;;;;2.87;2.57;;;23.10;31.80;;;;;;4995868;28;20402;-54
2020/12/20 01:32:17;;;;;;;2.50;2.10;;;23.00;32.60;;;;;;4995654;28;20390;-54
2020/12/20 01:34:45;;;;;;;2.30;2.10;;;23.10;31.90;;;;;;4995545;28;20401;-54
2020/12/20 01:37:11;;;;;;;2.50;2.30;;;23.00;32.00;;;;;;4995772;28;20401;-54
2020/12/20 01:39:36;;;;;;;2.47;2.28;;;22.90;31.90;;;;;;4995719;28;20755;-54
2020/12/20 01:42:02;;;;;;;2.30;2.10;;;23.00;31.70;;;;;;4995800;28;20398;-54
2020/12/20 01:44:28;;;;;;;2.38;2.00;;;23.00;32.00;;;;;;4995610;28;20406;-54
2020/12/20 01:46:55;;;;;;;2.20;2.00;;;22.90;31.90;;;;;;4995011;28;20477;-54
2020/12/20 01:49:21;;;;;;;2.30;2.10;;;22.90;32.00;;;;;;4995589;28;20901;-54
2020/12/20 01:51:48;;;;;;;2.43;2.23;;;22.90;31.90;;;;;;4995496;28;20387;-54
2020/12/20 01:54:14;;;;;;;2.25;2.00;;;22.80;31.90;;;;;;4995376;28;20946;-54
2020/12/20 01:56:41;;;;;;;2.67;2.40;;;22.80;31.90;;;;;;4995135;28;20390;-54
2020/12/20 01:59:07;;;;;;;2.80;2.50;;;22.80;32.00;;;;;;4995099;28;20406;-54
2020/12/20 02:01:32;;;;;;;2.35;2.15;;;22.80;31.90;;;;;;4995054;28;20985;-54
2020/12/20 02:03:58;;;;;;;2.50;2.30;;;22.80;31.90;;;;;;4995185;28;20422;-53
2020/12/20 02:06:24;;;;;;;2.40;2.20;;;22.80;31.90;;;;;;4977560;28;20403;-54
2020/12/20 02:08:49;;;;;;;2.95;2.20;;;22.70;31.80;;;;;;4994562;28;20398;-54
2020/12/20 02:11:16;;;;;;;2.30;2.03;;;22.70;31.80;;;;;;4995062;28;20390;-54
2020/12/20 02:13:50;;;;;;;2.70;2.35;;;22.60;32.50;;;;;;4994958;28;20867;-54
2020/12/20 02:16:20;;;;;;;2.47;2.28;;;22.60;31.90;;;;;;4995026;28;20399;-53
2020/12/20 02:18:47;;;;;;;2.60;2.40;;;22.60;32.00;;;;;;4994553;28;20408;-55
2020/12/20 02:21:16;;;;;;;2.60;2.40;;;22.60;31.70;;;;;;4995192;28;20620;-54
2020/12/20 02:23:43;;;;;;;2.55;2.35;;;22.60;31.90;;;;;;4994881;28;20906;-53
2020/12/20 02:26:11;;;;;;;2.50;2.30;;;22.50;31.90;;;;;;4994807;28;20405;-53
2020/12/20 02:28:38;;;;;;;2.33;2.13;;;22.50;31.80;;;;;;4994640;28;20897;-54
2020/12/20 02:31:03;;;;;;;2.30;2.10;;;22.40;31.90;;;;;;4994529;28;20410;-54
2020/12/20 02:33:30;;;;;;;2.90;2.60;;;22.40;31.70;;;;;;4994585;28;20394;-53
2020/12/20 02:35:56;;;;;;;2.58;2.30;;;22.40;31.80;;;;;;4994760;28;20414;-54
2020/12/20 02:38:22;;;;;;;2.47;2.28;;;22.40;32.00;;;;;;4994603;28;20484;-54
2020/12/20 02:40:48;;;;;;;2.60;2.40;;;22.40;32.00;;;;;;4994379;28;20398;-54
2020/12/20 02:43:13;;;;;;;2.50;2.30;;;22.40;31.90;;;;;;4994520;28;20858;-54
2020/12/20 02:45:39;;;;;;;2.40;2.20;;;22.30;31.90;;;;;;4994311;28;20433;-54
2020/12/20 02:48:05;;;;;;;2.60;2.40;;;22.30;32.00;;;;;;4994371;28;20395;-54
2020/12/20 02:50:30;;;;;;;2.40;2.20;;;22.30;32.00;;;;;;4994413;28;20434;-54
2020/12/20 02:52:56;;;;;;;2.40;2.20;;;22.20;31.90;;;;;;4993908;28;20398;-54
2020/12/20 02:55:22;;;;;;;2.33;2.13;;;22.20;32.00;;;;;;4994360;28;20398;-54
2020/12/20 02:57:47;;;;;;;2.60;2.40;;;22.20;32.00;;;;;;4994338;28;20394;-54
2020/12/20 03:00:13;;;;;;;2.35;2.15;;;22.20;32.00;;;;;;4994495;28;20402;-54
2020/12/20 03:02:39;;;;;;;2.60;2.40;;;22.20;32.10;;;;;;4993686;28;20418;-54
2020/12/20 03:05:04;;;;;;;2.45;2.25;;;22.10;31.90;;;;;;4993812;28;20398;-54
2020/12/20 03:07:30;;;;;;;2.40;2.20;;;22.10;32.50;;;;;;4994014;28;20395;-54
2020/12/20 03:09:56;;;;;;;2.20;2.00;;;22.10;32.00;;;;;;4993932;28;20402;-54
2020/12/20 03:12:24;;;;;;;2.20;2.00;;;22.10;32.10;;;;;;4993911;28;20386;-54
2020/12/20 03:14:50;;;;;;;2.28;2.08;;;22.00;32.00;;;;;;4976136;28;20399;-54
2020/12/20 03:17:16;;;;;;;2.37;2.17;;;22.10;32.10;;;;;;4994093;28;20417;-54
2020/12/20 03:19:41;;;;;;;2.40;2.20;;;22.00;32.10;;;;;;4993910;28;20913;-54
2020/12/20 03:22:07;;;;;;;2.30;2.10;;;22.00;32.10;;;;;;4993789;28;20391;-54
2020/12/20 03:24:32;;;;;;;2.28;2.08;;;21.90;32.00;;;;;;4993757;28;20410;-54
2020/12/20 03:26:58;;;;;;;2.40;2.20;;;21.90;32.00;;;;;;4993295;28;20986;-54
2020/12/20 03:29:23;;;;;;;2.53;2.30;;;21.90;32.10;;;;;;4993499;28;20496;-54
2020/12/20 03:31:49;;;;;;;2.40;2.20;;;21.90;32.10;;;;;;4993699;28;20391;-54
2020/12/20 03:34:15;;;;;;;2.60;2.40;;;21.90;32.10;;;;;;4993610;28;20395;-54
2020/12/20 03:36:40;;;;;;;2.47;2.28;;;21.80;32.00;;;;;;4993283;28;20394;-54
2020/12/20 03:39:06;;;;;;;2.20;2.00;;;21.80;32.10;;;;;;4975290;28;20902;-54
2020/12/20 03:41:32;;;;;;;2.40;2.20;;;21.80;32.10;;;;;;4993464;28;20398;-54
2020/12/20 03:43:57;;;;;;;2.30;2.10;;;21.80;32.20;;;;;;4993315;28;20418;-54
2020/12/20 03:46:23;;;;;;;2.60;2.40;;;21.80;32.20;;;;;;4993336;28;20977;-54
2020/12/20 03:48:48;;;;;;;2.40;2.20;;;21.80;32.30;;;;;;4992954;28;20394;-54
2020/12/20 03:51:14;;;;;;;2.50;2.30;;;21.80;32.30;;;;;;4993035;28;20799;-54
2020/12/20 03:53:39;;;;;;;2.33;2.13;;;21.70;32.20;;;;;;4993163;28;20473;-54
2020/12/20 03:56:09;;;;;;;2.40;2.20;;;21.70;32.20;;;;;;4993272;28;20481;-54
2020/12/20 03:58:34;;;;;;;2.15;1.95;;;21.70;32.30;;;;;;4993052;28;20438;-54
2020/12/20 04:01:00;;;;;;;2.27;2.07;;;21.70;32.20;;;;;;4992620;28;20421;-54
2020/12/20 04:03:26;;;;;;;2.47;2.28;;;21.60;32.20;;;;;;4992795;28;20430;-54
2020/12/20 04:05:51;;;;;;;2.30;2.10;;;21.60;32.30;;;;;;4993062;28;20390;-54
2020/12/20 04:08:17;;;;;;;2.30;2.10;;;21.60;32.30;;;;;;4992931;28;20994;-54
2020/12/20 04:10:42;;;;;;;2.40;2.20;;;21.60;32.20;;;;;;4992467;28;20492;-54
2020/12/20 04:13:08;;;;;;;2.30;2.10;;;21.60;32.20;;;;;;4992542;28;20875;-54
2020/12/20 04:15:34;;;;;;;2.30;2.10;;;21.60;32.30;;;;;;4992730;28;20481;-54
2020/12/20 04:17:59;;;;;;;2.30;2.10;;;21.50;32.30;;;;;;4992881;28;20544;-54
2020/12/20 04:20:25;;;;;;;2.40;2.20;;;21.50;32.20;;;;;;4992714;28;20857;-54
2020/12/20 04:22:51;;;;;;;2.30;2.10;;;21.50;32.30;;;;;;4992378;28;20509;-54
2020/12/20 04:25:16;;;;;;;2.33;2.10;;;21.50;32.30;;;;;;4975090;28;20395;-54
2020/12/20 04:27:42;;;;;;;2.35;2.15;;;21.40;32.30;;;;;;4993090;28;20406;-54
2020/12/20 04:30:08;;;;;;;2.20;2.00;;;21.40;32.30;;;;;;4975137;28;20485;-54
2020/12/20 04:32:34;;;;;;;2.20;2.00;;;21.40;32.40;;;;;;4992338;28;20424;-54
2020/12/20 04:34:59;;;;;;;2.50;2.30;;;21.30;32.30;;;;;;4991770;28;20399;-54
2020/12/20 04:37:25;;;;;;;2.33;2.13;;;21.40;32.40;;;;;;4992099;28;20394;-54
2020/12/20 04:39:50;;;;;;;2.60;2.40;;;21.30;32.50;;;;;;4992357;28;20405;-54
2020/12/20 04:42:16;;;;;;;2.20;2.00;;;21.30;32.40;;;;;;4992249;28;20755;-54
2020/12/20 04:44:42;;;;;;;2.33;2.13;;;21.30;32.40;;;;;;4992281;28;20442;-54
2020/12/20 04:47:10;;;;;;;2.10;1.90;;;21.30;32.40;;;;;;4974687;28;20481;-54
2020/12/20 04:49:38;;;;;;;2.47;2.28;;;21.30;32.30;;;;;;4991378;28;20798;-54
2020/12/20 04:52:03;;;;;;;2.30;2.10;;;21.30;32.40;;;;;;4992192;28;20397;-54
2020/12/20 04:54:32;;;;;;;2.30;2.10;;;21.20;32.30;;;;;;4991814;28;20489;-54
2020/12/20 04:56:57;;;;;;;2.47;2.28;;;21.20;32.50;;;;;;4991617;28;20398;-54
2020/12/20 04:59:24;;;;;;;2.50;2.30;;;21.20;32.50;;;;;;4992120;28;20489;-54
2020/12/20 05:01:50;;;;;;;2.58;2.38;;;21.20;32.50;;;;;;4992058;28;20435;-54
2020/12/20 05:04:16;;;;;;;2.13;1.93;;;21.10;32.40;;;;;;4992024;28;20476;-54
2020/12/20 05:06:41;;;;;;;2.45;2.25;;;21.10;32.40;;;;;;4991999;28;20397;-54
2020/12/20 05:09:07;;;;;;;2.30;2.10;;;21.10;33.50;;;;;;4991373;28;20390;-54
2020/12/20 05:11:38;;;;;;;2.13;1.92;;;21.10;33.30;;;;;;4992010;28;20394;-54
2020/12/20 05:14:06;;;;;;;2.40;2.20;;;21.10;33.30;;;;;;4991800;28;20390;-54
2020/12/20 05:16:39;;;;;;;2.20;2.00;;;21.00;32.90;;;;;;4974435;28;20434;-54
2020/12/20 05:19:08;;;;;;;2.30;2.10;;;21.00;33.30;;;;;;4991415;28;20434;-54
2020/12/20 05:21:34;;;;;;;2.43;2.23;;;21.00;33.10;;;;;;4991692;28;20414;-54
2020/12/20 05:24:20;;;;;;;2.40;2.20;;;21.00;33.10;;;;;;4991876;28;20430;-54
2020/12/20 05:26:46;;;;;;;2.72;2.50;;;21.00;33.10;;;;;;4991277;28;20429;-54
2020/12/20 05:29:12;;;;;;;2.73;2.53;;;20.90;32.80;;;;;;4990422;28;20434;-54
2020/12/20 05:31:39;;;;;;;3.05;2.40;;;20.90;33.20;;;;;;4991803;28;20390;-54
2020/12/20 05:34:05;;;;;;;2.70;2.50;;;20.90;33.00;;;;;;4991836;28;20886;-54
2020/12/20 05:36:31;;;;;;;2.50;2.30;;;20.90;32.80;;;;;;4991650;28;20406;-54
2020/12/20 05:39:17;;;;;;;2.50;2.30;;;20.80;32.90;;;;;;4991191;28;20401;-54
2020/12/20 05:41:43;;;;;;;2.50;2.30;;;20.80;32.90;;;;;;4991535;28;20510;-54
2020/12/20 05:44:14;;;;;;;2.58;2.38;;;20.80;33.00;;;;;;4991730;28;20421;-54
2020/12/20 05:46:44;;;;;;;2.60;2.40;;;20.80;33.20;;;;;;4991585;28;20458;-54
2020/12/20 05:49:28;;;;;;;2.50;2.30;;;20.70;32.90;;;;;;4991113;28;20391;-54
2020/12/20 05:52:08;;;;;;;2.50;2.30;;;20.80;32.70;;;;;;4991327;28;20521;-54
2020/12/20 05:54:39;;;;;;;2.60;2.35;;;20.70;32.80;;;;;;4991441;28;20383;-54
2020/12/20 05:57:15;;;;;;;2.60;2.40;;;20.70;32.90;;;;;;4991122;28;20467;-54
2020/12/20 05:59:43;;;;;;;2.63;2.42;;;20.70;32.70;;;;;;4991689;28;20395;-54
2020/12/20 06:02:09;;;;;;;2.70;2.50;;;20.70;32.80;;;;;;4977019;28;20433;-54
2020/12/20 06:04:36;;;;;;;2.60;2.40;;;20.60;32.90;;;;;;4995216;28;20414;-54
2020/12/20 06:07:04;;;;;;;2.33;2.13;;;20.70;32.80;;;;;;4994588;28;20425;-54
2020/12/20 06:09:30;;;;;;;2.72;2.53;;;20.70;32.80;;;;;;4994547;28;20438;-54
2020/12/20 06:11:58;;;;;;;2.65;2.45;;;20.70;32.60;;;;;;4994751;28;20521;-54
2020/12/20 06:14:29;;;;;;;2.67;2.47;;;20.70;32.60;;;;;;4994849;28;20432;-54
2020/12/20 06:17:12;;;;;;;2.47;2.28;;;20.80;32.60;;;;;;4994873;28;20484;-54
2020/12/20 06:19:52;;;;;;;2.67;2.47;;;20.90;32.50;;;;;;4994911;28;20887;-54
2020/12/20 06:22:20;;;;;;;2.50;2.30;;;20.90;32.30;;;;;;4994756;28;21053;-54
2020/12/20 06:24:47;;;;;;;2.85;2.58;;;20.90;32.20;;;;;;4994907;28;20403;-54
2020/12/20 06:27:15;;;;;;;2.53;2.33;;;21.00;32.20;;;;;;4994788;28;20390;-54
2020/12/20 06:29:46;;;;;;;2.80;2.60;;;21.00;32.10;;;;;;4994596;28;20402;-54
2020/12/20 06:32:15;;;;;;;2.90;2.60;;;21.00;32.10;;;;;;4994674;28;20436;-54
2020/12/20 06:34:41;;;;;;;2.72;2.53;;;21.00;32.00;;;;;;4994370;28;20387;-54
2020/12/20 06:37:08;;;;;;;2.80;2.50;;;21.10;32.00;;;;;;4994276;28;20763;-54
2020/12/20 06:39:41;;;;;;;2.88;2.60;;;21.10;32.00;;;;;;4994579;28;20442;-54
2020/12/20 06:42:07;;;;;;;2.70;2.50;;;21.10;31.90;;;;;;4994595;28;20732;-54
2020/12/20 06:44:33;;;;;;;2.50;2.30;;;21.10;31.90;;;;;;4994105;28;20425;-54
2020/12/20 06:46:59;;;;;;;2.63;2.42;;;21.10;31.90;;;;;;4994094;28;20395;-54
2020/12/20 06:49:39;;;;;;;2.40;2.20;;;21.10;31.90;;;;;;4994003;28;20399;-54
2020/12/20 06:52:17;;;;;;;2.50;2.30;;;21.10;31.90;;;;;;4994407;28;20738;-54
2020/12/20 06:55:00;;;;;;;2.60;2.40;;;21.10;31.80;;;;;;4994258;28;20402;-54
2020/12/20 06:57:26;;;;;;;2.60;2.40;;;21.10;31.80;;;;;;4994207;28;20378;-54
2020/12/20 06:59:52;;;;;;;2.50;2.25;;;21.10;31.90;;;;;;4994355;28;20830;-54
2020/12/20 07:02:48;;;;;;;2.43;2.23;;;21.10;31.80;;;;;;4994013;28;20406;-54
2020/12/20 07:05:42;;;;;;;2.60;2.40;;;21.10;31.80;;;;;;4981548;28;20411;-55
2020/12/20 07:08:13;;;;;;;2.50;2.30;;;21.10;31.90;;;;;;4993904;28;20407;-54
2020/12/20 07:10:46;;;;;;;2.40;2.20;;;21.10;31.80;;;;;;4976400;28;20755;-54
2020/12/20 07:13:13;;;;;;;2.63;2.40;;;21.10;31.80;;;;;;4992444;28;20451;-54
2020/12/20 07:15:51;;;;;;;2.50;2.30;;;21.10;31.80;;;;;;4993962;28;20394;-54
2020/12/20 07:18:42;;;;;;;2.58;2.38;;;21.10;31.80;;;;;;4993943;28;20386;-54
2020/12/20 07:21:19;;;;;;;2.40;2.20;;;21.10;31.70;;;;;;4993597;28;20386;-54
2020/12/20 07:24:00;;;;;;;2.10;1.90;;;21.10;31.60;;;;;;4993765;28;20810;-54
2020/12/20 07:26:26;;;;;;;2.40;2.20;;;21.10;31.70;;;;;;4993737;28;20466;-54
2020/12/20 07:28:56;;;;;;;2.30;2.10;;;21.10;31.70;;;;;;4993691;28;20474;-53
2020/12/20 07:31:22;;;;;;;2.50;2.30;;;21.10;31.70;;;;;;4993463;28;20422;-54
2020/12/20 07:33:48;;;;;;;2.50;2.30;;;21.10;31.80;;;;;;4993464;28;20441;-54
2020/12/20 07:36:14;;;;;;;2.30;2.10;;;21.10;31.80;;;;;;4993402;28;20890;-54
2020/12/20 07:38:40;;;;;;;2.40;2.20;;;21.10;31.90;;;;;;4993202;28;20426;-54
2020/12/20 07:41:07;;;;;;;2.50;2.30;;;21.10;32.00;;;;;;4993026;28;20863;-53
2020/12/20 07:43:33;;;;;;;2.47;2.15;;;21.00;31.50;;;;;;4993064;28;20480;-54
2020/12/20 07:46:00;;;;;;;3.23;2.30;;;20.90;31.30;;;;;;4992073;28;20391;-53
2020/12/20 07:48:27;;;;;;;2.80;2.37;;;20.90;31.80;;;;;;4993031;28;20394;-54
2020/12/20 07:51:05;;;;;;;2.78;2.40;;;20.90;32.50;;;;;;4993220;28;20730;-55
2020/12/20 07:53:31;;;;;;;2.40;2.20;;;21.00;32.50;;;;;;4961994;28;20933;-55
2020/12/20 07:55:57;;;;;;;2.30;2.10;;;21.00;32.30;;;;;;4951161;28;20403;-54
2020/12/20 07:58:24;;;;;;;2.50;2.30;;;20.90;32.10;;;;;;4993172;28;20871;-54
2020/12/20 08:01:03;;;;;;;2.60;2.10;;;20.90;32.40;;;;;;4994656;28;20417;-57
2020/12/20 08:03:29;;;;;;;2.60;2.20;;;20.90;32.50;;;;;;4926010;28;20535;-59
2020/12/20 08:06:08;;;;;;;3.70;2.40;;;20.90;32.40;;;;;;4972928;28;20463;-54
2020/12/20 08:08:34;;;;;;;7.20;2.20;;;20.90;32.50;;;;;;4973794;28;20400;-54
2020/12/20 08:11:22;;;;;;;4.15;2.20;;;20.80;32.70;;;;;;4973229;28;20416;-54
2020/12/20 08:13:53;;;;;;;2.70;2.20;;;20.80;32.60;;;;;;4989380;28;20897;-54
2020/12/20 08:16:27;;;;;;;3.70;2.40;;;20.70;32.70;;;;;;4992724;28;20399;-54
2020/12/20 08:18:59;;;;;;;3.20;2.38;;;20.80;32.70;;;;;;4992572;28;20399;-54
2020/12/20 08:21:40;;;;;;;5.35;2.40;;;20.70;33.40;;;;;;4974868;28;20754;-54
2020/12/20 08:24:07;;;;;;;4.38;2.47;;;20.70;33.30;;;;;;4992377;28;20425;-54
2020/12/20 08:26:34;;;;;;;4.68;2.30;;;20.70;33.50;;;;;;4992643;28;20393;-54
2020/12/20 08:29:01;;;;;;;4.55;2.30;;;20.80;33.20;;;;;;4992185;28;20882;-54
2020/12/20 08:31:31;;;;;;;5.93;2.28;;;20.70;33.10;;;;;;4992555;28;20753;-54
2020/12/20 08:33:58;;;;;;;3.25;2.33;;;20.70;33.10;;;;;;4992789;28;20418;-54
2020/12/20 08:36:25;;;;;;;3.20;2.30;;;20.70;33.10;;;;;;4992542;28;20409;-54
2020/12/20 08:38:52;;;;;;;3.22;2.35;;;20.70;33.10;;;;;;4992525;28;20387;-54
2020/12/20 08:41:25;;;;;;;3.27;2.50;;;20.70;33.10;;;;;;4991942;28;20461;-54
2020/12/20 08:44:09;;;;;;;3.58;2.35;;;20.70;33.10;;;;;;4991998;28;20414;-54
2020/12/20 08:46:40;;;;;;;3.37;2.37;;;20.70;33.10;;;;;;4992353;28;20394;-54
2020/12/20 08:49:24;;;;;;;2.50;2.22;;;20.60;33.10;;;;;;4991895;28;20481;-54
2020/12/20 08:51:51;;;;;;;3.13;2.30;;;20.60;33.00;;;;;;4992262;28;20426;-54
2020/12/20 08:54:29;;;;;;;3.45;2.40;;;20.60;33.20;;;;;;4992158;28;20791;-54
2020/12/20 08:57:12;;;;;;;4.18;2.40;;;20.60;33.20;;;;;;4992193;28;20763;-58
2020/12/20 08:59:42;;;;;;;3.95;2.47;;;20.60;33.20;;;;;;4991953;28;20390;-54
2020/12/20 09:02:16;;;;;;;3.00;2.30;;;20.60;33.20;;;;;;5000675;28;20420;-54
2020/12/20 09:04:57;;;;;;;4.18;2.58;;;20.60;33.20;;;;;;5010443;28;20420;-54
2020/12/20 09:07:33;;;;;;;4.22;2.50;;;20.60;33.90;;;;;;5011448;28;20464;-55
2020/12/20 09:10:17;;;;;;;6.72;2.42;;;20.50;33.30;;;;;;5011825;28;20400;-54
2020/12/20 09:12:54;;;;;;;5.20;2.60;;;20.60;33.80;;;;;;5011573;28;20377;-55
2020/12/20 09:15:30;;;;;;;6.30;2.45;;;20.60;34.60;;;;;;5011100;28;20393;-53
2020/12/20 09:17:58;;;;;;;8.40;2.60;;;20.50;34.80;;;;;;5011542;28;20384;-53
2020/12/20 09:20:27;;;;;;;4.13;2.30;;;20.60;34.60;;;;;;5011623;28;20400;-54
2020/12/20 09:22:57;;;;;;;4.90;2.60;;;20.60;34.30;;;;;;5011350;28;20409;-53
2020/12/20 09:25:36;;;;;;;5.55;2.40;;;20.60;34.00;;;;;;5011210;28;20909;-54
2020/12/20 09:28:07;;;;;;;4.65;2.50;;;20.60;33.80;;;;;;4994195;28;20381;-53
2020/12/20 09:30:36;;;;;;;6.15;2.58;;;20.60;33.70;;;;;;5011441;28;20500;-53
2020/12/20 09:33:18;;;;;;;6.38;2.60;;;20.70;33.60;;;;;;5011487;28;20779;-53
2020/12/20 09:35:51;;;;;;;6.53;2.70;;;20.70;33.50;;;;;;4994789;28;20397;-53
2020/12/20 09:38:16;;;;;;;5.18;2.40;;;20.70;33.10;;;;;;5015267;28;20746;-54
2020/12/20 09:40:42;;;;;;;7.35;2.85;;;20.70;33.30;;;;;;5015098;28;20806;-53
2020/12/20 09:43:08;;;;;;;10.20;2.70;;;20.70;32.80;;;;;;5014904;28;20424;-53
2020/12/20 09:45:33;;;;;;;7.00;2.70;;;20.70;32.90;;;;;;5013740;28;20431;-53
2020/12/20 09:47:59;;;;;;;9.80;2.70;;;20.70;32.90;;;;;;5015205;28;20442;-53
2020/12/20 09:50:24;;;;;;;9.45;2.65;;;20.70;32.90;;;;;;5014964;28;20389;-53
2020/12/20 09:52:50;;;;;;;9.20;2.70;;;20.70;32.90;;;;;;5015169;28;20868;-53
2020/12/20 09:55:16;;;;;;;5.82;2.47;;;20.70;32.80;;;;;;5014339;28;20884;-53
2020/12/20 09:57:41;;;;;;;4.73;2.20;;;20.70;32.80;;;;;;5014923;28;20385;-54
2020/12/20 10:00:07;;;;;;;5.43;2.47;;;20.70;32.70;;;;;;5014919;28;20392;-54
2020/12/20 10:02:32;;;;;;;6.83;2.50;;;20.70;32.60;;;;;;5014622;28;20417;-54
2020/12/20 10:04:58;;;;;;;4.85;2.25;;;20.70;32.60;;;;;;5014681;28;20467;-53
2020/12/20 10:07:24;;;;;;;6.20;2.60;;;20.70;32.50;;;;;;5014199;28;20421;-54
2020/12/20 10:09:49;;;;;;;5.53;2.50;;;20.70;32.50;;;;;;5014823;28;20419;-53
2020/12/20 10:12:16;;;;;;;4.83;2.30;;;20.70;32.50;;;;;;5014786;28;20392;-53
2020/12/20 10:14:42;;;;;;;4.72;2.45;;;20.70;32.40;;;;;;4996972;28;20841;-53
2020/12/20 10:17:08;;;;;;;6.13;2.70;;;20.70;32.30;;;;;;5014372;28;20772;-53
2020/12/20 10:19:33;;;;;;;3.37;2.10;;;20.70;32.30;;;;;;5014272;28;20405;-53
2020/12/20 10:21:59;;;;;;;3.35;2.25;;;20.70;32.30;;;;;;5014600;28;20384;-53
2020/12/20 10:24:25;;;;;;;4.40;2.30;;;20.70;32.30;;;;;;5014307;28;20897;-53
2020/12/20 10:26:50;;;;;;;3.83;2.35;;;20.70;32.30;;;;;;5014454;28;20420;-57
2020/12/20 10:29:17;;;;;;;4.60;2.47;;;20.70;32.20;;;;;;5013971;28;20416;-54
2020/12/20 10:31:45;;;;;;;4.20;2.15;;;20.70;32.20;;;;;;5014401;28;20396;-54
2020/12/20 10:34:11;;;;;;;3.70;2.40;;;20.80;32.30;;;;;;5014482;28;20455;-54
2020/12/20 10:36:37;;;;;;;3.27;2.30;;;20.80;32.30;;;;;;5013993;28;20389;-53
2020/12/20 10:39:06;;;;;;;3.90;2.35;;;20.70;32.20;;;;;;5013852;28;20401;-53
2020/12/20 10:41:38;;;;;;;4.35;2.50;;;20.80;32.20;;;;;;5013846;28;20400;-54
2020/12/20 10:44:08;;;;;;;2.85;2.30;;;20.70;32.10;;;;;;5014055;28;20417;-53
2020/12/20 10:46:34;;;;;;;2.80;2.30;;;20.70;32.10;;;;;;5013391;28;20445;-53
2020/12/20 10:49:00;;;;;;;3.60;2.33;;;20.80;32.20;;;;;;5013330;28;20411;-53
2020/12/20 10:51:27;;;;;;;3.22;2.28;;;20.80;32.20;;;;;;5013524;28;20845;-54
2020/12/20 10:53:52;;;;;;;4.40;2.58;;;20.80;32.10;;;;;;5013979;28;20389;-53
2020/12/20 10:56:18;;;;;;;2.87;2.30;;;20.80;32.20;;;;;;5014014;28;20407;-53
2020/12/20 10:58:48;;;;;;;3.30;2.20;;;20.70;32.10;;;;;;5013214;28;21209;-55
2020/12/20 11:01:16;;;;;;;2.80;2.50;;;20.80;32.10;;;;;;5014376;28;20443;-61
2020/12/20 11:03:43;;;;;;;3.13;2.40;;;20.80;32.10;;;;;;5033331;28;20415;-58
2020/12/20 11:06:09;;;;;;;2.63;2.20;;;20.80;32.70;;;;;;5015664;28;20395;-53
2020/12/20 11:08:35;;;;;;;2.60;2.40;;;20.80;32.10;;;;;;5033404;28;20875;-53
2020/12/20 11:11:00;;;;;;;2.50;2.30;;;20.80;32.10;;;;;;5033472;28;20449;-53
2020/12/20 11:13:26;;;;;;;3.53;2.30;;;20.70;32.00;;;;;;5032891;28;20406;-53
2020/12/20 11:15:52;;;;;;;3.40;2.50;;;20.80;32.10;;;;;;5033137;28;20402;-53
2020/12/20 11:18:17;;;;;;;2.72;2.30;;;20.80;32.10;;;;;;5033386;28;20402;-53
2020/12/20 11:20:43;;;;;;;2.63;2.42;;;20.80;32.00;;;;;;5033221;28;20867;-54
2020/12/20 11:23:09;;;;;;;3.17;2.60;;;20.70;32.00;;;;;;5033013;28;20543;-53
2020/12/20 11:25:34;;;;;;;3.20;2.47;;;20.70;32.00;;;;;;5032843;28;20402;-53
2020/12/20 11:28:00;;;;;;;3.20;2.70;;;20.70;32.00;;;;;;5033089;28;20371;-53
2020/12/20 11:30:26;;;;;;;2.72;2.40;;;20.80;32.10;;;;;;5033021;28;20407;-53
2020/12/20 11:32:51;;;;;;;3.73;2.50;;;20.80;32.10;;;;;;5032953;28;20395;-53
2020/12/20 11:35:17;;;;;;;2.88;2.42;;;20.70;32.00;;;;;;5032573;28;20387;-53
2020/12/20 11:37:43;;;;;;;2.85;2.58;;;20.70;32.00;;;;;;5032915;28;20529;-53
2020/12/20 11:40:10;;;;;;;3.00;2.70;;;20.70;32.10;;;;;;5032676;28;20476;-53
2020/12/20 11:42:35;;;;;;;9.98;3.42;;;20.70;32.00;;;;;;5032208;28;20391;-53
2020/12/20 11:45:01;;;;;;;7.93;3.00;;;20.70;32.20;;;;;;5030808;28;20949;-55
2020/12/20 11:47:26;;;;;;;10.38;3.22;;;20.70;32.60;;;;;;5030201;28;20441;-53
2020/12/20 11:49:52;;;;;;;11.97;3.40;;;20.70;32.80;;;;;;5032283;28;20887;-55
2020/12/20 11:52:18;;;;;;;13.13;3.50;;;20.60;33.00;;;;;;5032676;28;20383;-53
2020/12/20 11:54:43;;;;;;;8.20;3.10;;;20.70;33.00;;;;;;5032520;28;20389;-53
2020/12/20 11:57:09;;;;;;;10.13;3.97;;;20.70;33.80;;;;;;5032177;28;20395;-53
2020/12/20 11:59:35;;;;;;;11.98;5.22;;;20.70;34.30;;;;;;5031743;28;20899;-54
2020/12/20 12:02:01;;;;;;;9.43;4.20;;;20.80;35.20;;;;;;5032325;28;20438;-53
2020/12/20 12:04:27;;;;;;;11.30;4.40;;;20.90;36.20;;;;;;5032075;28;20427;-53
2020/12/20 12:06:53;;;;;;;8.63;6.15;;;21.00;36.80;;;;;;5032112;28;20415;-53
2020/12/20 12:09:19;;;;;;;14.32;12.82;;;21.00;36.30;;;;;;5031631;28;20768;-54
2020/12/20 12:11:45;;;;;;;12.10;8.68;;;21.10;35.90;;;;;;5032073;28;20477;-53
2020/12/20 12:14:10;;;;;;;13.43;8.37;;;21.10;37.60;;;;;;4980104;28;20407;-54
2020/12/20 12:16:36;;;;;;;15.50;11.18;;;21.20;36.50;;;;;;5014021;28;20403;-53
2020/12/20 12:19:02;;;;;;;20.35;17.60;;;21.30;36.90;;;;;;5031665;28;20388;-53
2020/12/20 12:21:28;;;;;;;18.40;16.27;;;21.40;35.90;;;;;;5030935;28;20375;-53
2020/12/20 12:23:55;;;;;;;16.17;13.20;;;21.40;36.10;;;;;;4993727;28;20448;-62
2020/12/20 12:26:20;;;;;;;14.30;12.77;;;21.50;35.20;;;;;;4992882;28;20728;-54
2020/12/20 12:28:46;;;;;;;13.63;10.80;;;21.60;34.30;;;;;;4991012;28;20449;-53
2020/12/20 12:31:12;;;;;;;17.60;14.57;;;21.70;33.80;;;;;;5008944;28;20434;-53
2020/12/20 12:33:37;;;;;;;16.70;14.53;;;21.80;33.40;;;;;;5011051;28;21056;-53
2020/12/20 12:36:05;;;;;;;23.15;19.08;;;21.90;32.80;;;;;;5012028;28;20384;-54
2020/12/20 12:38:31;;;;;;;28.83;23.30;;;22.00;32.60;;;;;;5011643;28;20904;-53
2020/12/20 12:40:58;;;;;;;30.83;24.77;;;22.10;32.20;;;;;;5011843;28;20463;-53
2020/12/20 12:43:23;;;;;;;19.60;16.05;;;22.30;32.20;;;;;;4992691;28;20410;-54
2020/12/20 12:45:49;;;;;;;17.40;15.00;;;22.30;33.10;;;;;;4996985;28;20404;-53
2020/12/20 12:48:14;;;;;;;17.85;14.57;;;22.50;33.80;;;;;;5001552;28;20396;-53
2020/12/20 12:50:40;;;;;;;18.47;13.87;;;22.50;34.10;;;;;;4985273;28;20525;-53
2020/12/20 12:53:06;;;;;;;15.18;13.30;;;22.60;35.00;;;;;;5000553;28;20395;-53